Time;durP1;ratioP1;P1;durP2;ratioP2;P2;SDS_P1;SDS_P2;PMS_P1;PMS_P2;Temp;Humidity;BMP_temperature;BMP_pressure;BME280_temperature;BME280_humidity;BME280_pressure;Samples;Min_cycle;Max_cycle;Signal;HPM_P1;HPM_P2
2022/11/14 00:01:40;;;;;;;8.40;6.23;;;7.40;99.90;;;;;;5014720;28;20277;-88
2022/11/14 00:04:14;;;;;;;8.17;6.60;;;7.30;99.90;;;;;;5001631;28;20627;-87
2022/11/14 00:06:47;;;;;;;7.60;6.37;;;7.20;99.90;;;;;;5012583;28;20563;-88
2022/11/14 00:09:19;;;;;;;7.93;6.80;;;7.10;99.90;;;;;;5013626;28;20220;-88
2022/11/14 00:11:50;;;;;;;8.67;6.27;;;7.00;99.90;;;;;;5015842;28;20325;-89
2022/11/14 00:14:22;;;;;;;8.97;6.70;;;7.00;99.90;;;;;;5014938;28;20201;-87
2022/11/14 00:16:53;;;;;;;8.47;6.73;;;7.00;99.90;;;;;;5012050;28;20268;-89
2022/11/14 00:19:24;;;;;;;9.00;6.90;;;6.90;99.90;;;;;;4999637;28;20214;-89
2022/11/14 00:21:59;;;;;;;8.60;6.87;;;6.80;99.90;;;;;;5012805;28;20229;-91
2022/11/14 00:24:30;;;;;;;8.10;6.87;;;6.70;99.90;;;;;;5021512;28;20552;-87
2022/11/14 00:27:02;;;;;;;9.03;7.13;;;6.70;99.90;;;;;;5022381;28;20202;-87
2022/11/14 00:29:36;;;;;;;9.70;7.30;;;6.50;99.90;;;;;;5005404;28;20229;-89
2022/11/14 00:32:08;;;;;;;9.87;6.77;;;6.50;99.90;;;;;;5003978;28;20218;-90
2022/11/14 00:34:40;;;;;;;9.60;7.00;;;6.40;99.90;;;;;;5004872;28;20201;-88
2022/11/14 00:37:13;;;;;;;8.87;7.10;;;6.30;99.90;;;;;;5006156;28;20240;-88
2022/11/14 00:39:50;;;;;;;8.23;6.73;;;6.20;99.90;;;;;;5011795;28;20727;-88
2022/11/14 00:42:21;;;;;;;14.63;10.67;;;6.20;99.90;;;;;;5016805;28;20304;-89
2022/11/14 00:44:55;;;;;;;9.83;7.67;;;6.20;99.90;;;;;;5015689;28;20220;-85
2022/11/14 00:47:44;;;;;;;11.77;7.37;;;6.10;99.90;;;;;;5016267;28;20271;-90
2022/11/14 00:50:18;;;;;;;7.80;6.67;;;6.00;99.90;;;;;;5009883;28;20210;-86
2022/11/14 00:52:52;;;;;;;12.27;7.17;;;5.90;99.90;;;;;;5015605;28;20210;-90
2022/11/14 00:55:26;;;;;;;10.00;6.47;;;5.90;99.90;;;;;;5017373;28;20210;-90
2022/11/14 00:57:57;;;;;;;8.67;6.90;;;5.80;99.90;;;;;;5016239;28;20320;-89
2022/11/14 01:00:29;;;;;;;10.00;7.43;;;5.70;99.90;;;;;;5016238;28;20217;-89
2022/11/14 01:03:00;;;;;;;8.73;6.77;;;5.60;99.90;;;;;;5016107;28;20225;-89
2022/11/14 01:05:34;;;;;;;8.70;6.77;;;5.60;99.90;;;;;;5016391;28;20209;-89
2022/11/14 01:08:08;;;;;;;8.97;6.60;;;5.50;99.90;;;;;;5016640;28;20292;-89
2022/11/14 01:10:41;;;;;;;8.83;6.43;;;5.50;99.90;;;;;;5016110;28;20204;-90
2022/11/14 01:13:13;;;;;;;8.07;6.50;;;5.40;99.90;;;;;;5014974;28;20208;-89
2022/11/14 01:15:49;;;;;;;9.43;7.20;;;5.30;99.90;;;;;;5016587;28;20686;-90
2022/11/14 01:18:24;;;;;;;8.90;6.67;;;5.20;99.90;;;;;;5016218;28;20357;-88
2022/11/14 01:20:57;;;;;;;9.27;7.27;;;5.20;99.90;;;;;;5017415;28;20205;-89
2022/11/14 01:23:30;;;;;;;8.43;6.80;;;5.20;99.90;;;;;;5016029;28;20206;-89
2022/11/14 01:26:05;;;;;;;8.93;6.30;;;5.10;99.90;;;;;;5017020;28;20322;-88
2022/11/14 01:28:43;;;;;;;9.57;7.17;;;5.10;99.90;;;;;;5017208;28;20285;-90
2022/11/14 01:31:17;;;;;;;9.07;6.70;;;5.00;99.90;;;;;;5019468;28;20231;-91
2022/11/14 01:33:54;;;;;;;8.83;6.67;;;5.00;99.90;;;;;;5018315;28;20210;-88
2022/11/14 01:36:26;;;;;;;11.03;6.60;;;4.80;99.90;;;;;;5018141;28;20233;-90
2022/11/14 01:38:59;;;;;;;11.70;8.00;;;4.80;99.90;;;;;;5017313;28;20209;-89
2022/11/14 01:41:30;;;;;;;13.83;8.20;;;4.70;99.90;;;;;;5016903;28;20201;-89
2022/11/14 01:44:17;;;;;;;11.87;8.87;;;4.70;99.90;;;;;;5017645;28;20288;-90
2022/11/14 01:46:53;;;;;;;11.20;8.27;;;4.60;99.90;;;;;;5017715;28;20198;-89
2022/11/14 01:49:37;;;;;;;12.13;9.00;;;4.60;99.90;;;;;;5019238;28;20206;-89
2022/11/14 01:52:14;;;;;;;12.17;9.00;;;4.50;99.90;;;;;;5016137;28;20213;-93
2022/11/14 01:55:02;;;;;;;11.37;7.70;;;4.50;99.90;;;;;;5023090;28;20228;-94
2022/11/14 01:57:38;;;;;;;11.13;7.20;;;4.50;99.90;;;;;;5025831;28;20221;-93
2022/11/14 02:00:13;;;;;;;9.43;6.97;;;4.40;99.90;;;;;;5026380;28;20268;-93
2022/11/14 02:02:45;;;;;;;9.83;7.30;;;4.30;99.90;;;;;;5023848;28;20205;-92
2022/11/14 02:05:19;;;;;;;9.73;7.27;;;4.30;99.90;;;;;;5023392;28;20212;-92
2022/11/14 02:07:51;;;;;;;9.27;7.10;;;4.30;99.90;;;;;;5018258;28;20662;-89
2022/11/14 02:10:28;;;;;;;10.10;7.13;;;4.20;99.90;;;;;;5019960;28;20237;-92
2022/11/14 02:13:01;;;;;;;10.87;6.80;;;4.20;99.90;;;;;;5020624;28;20202;-92
2022/11/14 02:15:33;;;;;;;12.33;7.50;;;4.20;99.90;;;;;;5011701;28;20210;-93
2022/11/14 02:18:06;;;;;;;9.13;7.27;;;4.20;99.90;;;;;;5017287;28;20726;-92
2022/11/14 02:20:44;;;;;;;10.50;7.50;;;4.10;99.90;;;;;;5021097;28;20213;-92
2022/11/14 02:23:27;;;;;;;10.83;7.67;;;4.10;99.90;;;;;;5009076;28;20248;-92
2022/11/14 02:25:59;;;;;;;8.87;6.90;;;4.10;99.90;;;;;;5030608;28;20369;-92
2022/11/14 02:28:32;;;;;;;9.37;7.53;;;4.10;99.90;;;;;;5023951;28;20241;-92
2022/11/14 02:31:05;;;;;;;9.57;6.73;;;4.00;99.90;;;;;;5019774;28;20229;-91
2022/11/14 02:33:38;;;;;;;10.43;7.53;;;4.00;99.90;;;;;;5015838;28;20220;-92
2022/11/14 02:36:13;;;;;;;9.77;6.93;;;4.00;99.90;;;;;;5020990;28;20240;-90
2022/11/14 02:38:46;;;;;;;11.33;8.03;;;4.00;99.90;;;;;;5016771;28;20283;-90
2022/11/14 02:41:18;;;;;;;10.97;7.27;;;4.00;99.90;;;;;;5018027;28;20217;-91
2022/11/14 02:43:53;;;;;;;9.97;7.53;;;3.90;99.90;;;;;;5016967;28;20836;-91
2022/11/14 02:46:26;;;;;;;11.23;7.73;;;3.90;99.90;;;;;;5016932;28;20213;-93
2022/11/14 02:48:58;;;;;;;12.40;8.50;;;3.80;99.90;;;;;;5017736;28;20318;-92
2022/11/14 02:51:34;;;;;;;10.57;8.27;;;3.90;99.90;;;;;;5016300;28;20220;-92
2022/11/14 02:54:07;;;;;;;11.20;8.40;;;3.90;99.90;;;;;;4996517;28;20214;-94
2022/11/14 02:56:42;;;;;;;12.10;9.40;;;3.90;99.90;;;;;;5016789;28;20272;-92
2022/11/14 02:59:14;;;;;;;11.53;9.20;;;3.90;99.90;;;;;;5016502;28;20275;-90
2022/11/14 03:01:47;;;;;;;11.33;8.43;;;3.90;99.90;;;;;;5015218;28;20228;-92
2022/11/14 03:04:23;;;;;;;10.83;8.97;;;3.90;99.90;;;;;;5014126;28;20194;-90
2022/11/14 03:06:59;;;;;;;13.93;8.60;;;3.90;99.90;;;;;;5013945;28;20670;-91
2022/11/14 03:09:30;;;;;;;12.87;9.17;;;3.90;99.90;;;;;;5011643;28;20206;-91
2022/11/14 03:12:03;;;;;;;12.50;9.93;;;3.90;99.90;;;;;;5012932;28;20260;-89
2022/11/14 03:14:38;;;;;;;12.03;8.90;;;3.90;99.90;;;;;;5015992;28;20205;-91
2022/11/14 03:17:14;;;;;;;15.10;9.87;;;3.90;99.90;;;;;;5016435;28;20933;-94
2022/11/14 03:19:46;;;;;;;12.33;9.77;;;3.90;99.90;;;;;;5013415;28;20225;-91
2022/11/14 03:22:21;;;;;;;14.33;9.77;;;3.90;99.90;;;;;;5012942;28;20206;-92
2022/11/14 03:24:54;;;;;;;18.80;10.80;;;3.90;99.90;;;;;;5014074;28;20295;-93
2022/11/14 03:27:29;;;;;;;15.47;10.50;;;3.90;99.90;;;;;;5016627;28;20216;-92
2022/11/14 03:30:02;;;;;;;14.77;11.10;;;3.90;99.90;;;;;;5014083;28;20316;-90
2022/11/14 03:32:34;;;;;;;13.97;9.97;;;3.80;99.90;;;;;;5013095;28;20201;-91
2022/11/14 03:35:07;;;;;;;16.43;11.57;;;3.80;99.90;;;;;;5014134;28;20202;-93
2022/11/14 03:37:46;;;;;;;15.07;10.23;;;3.70;99.90;;;;;;5016000;28;20221;-90
2022/11/14 03:40:24;;;;;;;14.27;10.20;;;3.70;99.90;;;;;;5019907;28;20216;-93
2022/11/14 03:42:58;;;;;;;15.63;11.27;;;3.60;99.90;;;;;;5013802;28;20218;-92
2022/11/14 03:45:29;;;;;;;15.20;10.27;;;3.60;99.90;;;;;;5014897;28;20428;-92
2022/11/14 03:48:01;;;;;;;15.63;10.73;;;3.60;99.90;;;;;;5016950;28;20205;-92
2022/11/14 03:50:35;;;;;;;13.77;9.90;;;3.60;99.90;;;;;;4996662;28;20198;-92
2022/11/14 03:53:12;;;;;;;18.10;11.10;;;3.60;99.90;;;;;;5015495;28;20210;-92
2022/11/14 03:55:45;;;;;;;14.37;9.93;;;3.50;99.90;;;;;;5018769;28;20592;-92
2022/11/14 03:58:17;;;;;;;12.37;9.67;;;3.50;99.90;;;;;;5019172;28;20225;-92
2022/11/14 04:00:50;;;;;;;15.83;10.20;;;3.50;99.90;;;;;;5021851;28;20627;-92
2022/11/14 04:03:22;;;;;;;13.80;9.73;;;3.40;99.90;;;;;;5021505;28;20217;-91
2022/11/14 04:05:57;;;;;;;14.57;10.53;;;3.40;99.90;;;;;;5017701;28;20212;-92
2022/11/14 04:08:33;;;;;;;14.27;11.07;;;3.40;99.90;;;;;;5012520;28;20197;-93
2022/11/14 04:11:05;;;;;;;13.50;10.60;;;3.40;99.90;;;;;;5016380;28;20673;-92
2022/11/14 04:13:38;;;;;;;17.80;10.73;;;3.30;99.90;;;;;;5016138;28;20213;-92
2022/11/14 04:16:09;;;;;;;13.03;10.70;;;3.30;99.90;;;;;;5017014;28;20207;-90
2022/11/14 04:18:41;;;;;;;14.47;10.83;;;3.30;99.90;;;;;;5017762;28;20233;-93
2022/11/14 04:21:12;;;;;;;16.33;10.87;;;3.30;99.90;;;;;;5016010;28;20770;-92
2022/11/14 04:23:46;;;;;;;13.30;10.33;;;3.20;99.90;;;;;;5014882;28;21027;-91
2022/11/14 04:26:18;;;;;;;14.53;10.53;;;3.20;99.90;;;;;;5014916;28;20201;-92
2022/11/14 04:28:50;;;;;;;16.17;11.00;;;3.20;99.90;;;;;;4995816;28;20213;-91
2022/11/14 04:31:22;;;;;;;15.53;10.47;;;3.20;99.90;;;;;;5011710;28;20221;-91
2022/11/14 04:33:55;;;;;;;14.73;10.00;;;3.20;99.90;;;;;;5015008;28;20213;-93
2022/11/14 04:36:28;;;;;;;14.13;11.00;;;3.20;99.90;;;;;;5016140;28;20216;-92
2022/11/14 04:39:01;;;;;;;13.33;9.97;;;3.20;99.90;;;;;;5016874;28;20229;-91
2022/11/14 04:41:34;;;;;;;14.63;10.27;;;3.20;99.90;;;;;;5010830;28;20304;-94
2022/11/14 04:44:05;;;;;;;14.67;11.20;;;3.10;99.90;;;;;;5012863;28;20213;-91
2022/11/14 04:46:37;;;;;;;15.03;10.70;;;3.10;99.90;;;;;;5021298;28;20205;-91
2022/11/14 04:49:13;;;;;;;13.30;10.07;;;3.10;99.90;;;;;;5020863;28;20201;-91
2022/11/14 04:51:44;;;;;;;14.97;11.03;;;3.10;99.90;;;;;;5020763;28;20205;-91
2022/11/14 04:54:18;;;;;;;15.50;11.57;;;3.00;99.90;;;;;;5023611;28;20212;-92
2022/11/14 04:56:50;;;;;;;14.03;11.00;;;3.00;99.90;;;;;;5023390;28;20213;-91
2022/11/14 04:59:22;;;;;;;15.13;11.20;;;2.90;99.90;;;;;;5023777;28;20238;-92
2022/11/14 05:01:54;;;;;;;15.97;12.37;;;2.90;99.90;;;;;;5023303;28;20197;-93
2022/11/14 05:04:29;;;;;;;17.83;12.67;;;2.90;99.90;;;;;;5025165;28;20204;-91
2022/11/14 05:07:01;;;;;;;17.63;11.93;;;2.90;99.90;;;;;;5023145;28;20260;-92
2022/11/14 05:09:40;;;;;;;16.93;11.63;;;2.80;99.90;;;;;;5030243;28;20259;-92
2022/11/14 05:12:13;;;;;;;18.40;11.30;;;2.80;99.90;;;;;;5022981;28;20224;-91
2022/11/14 05:14:46;;;;;;;19.20;11.83;;;2.80;99.90;;;;;;5022741;28;20208;-92
2022/11/14 05:17:21;;;;;;;15.40;11.03;;;2.80;99.90;;;;;;5025861;28;20241;-89
2022/11/14 05:19:53;;;;;;;16.33;11.70;;;2.70;99.90;;;;;;5016391;28;20233;-91
2022/11/14 05:22:25;;;;;;;22.17;14.40;;;2.70;99.90;;;;;;5015109;28;20282;-91
2022/11/14 05:24:59;;;;;;;22.57;15.70;;;2.60;99.90;;;;;;5012649;28;20718;-91
2022/11/14 05:27:31;;;;;;;25.27;17.27;;;2.70;99.90;;;;;;5012938;28;20307;-92
2022/11/14 05:30:03;;;;;;;26.87;18.53;;;2.70;99.90;;;;;;5007626;28;20796;-91
2022/11/14 05:32:36;;;;;;;27.67;19.40;;;2.70;99.90;;;;;;5013232;28;20257;-91
2022/11/14 05:35:10;;;;;;;28.53;19.20;;;2.70;99.90;;;;;;5014037;28;20447;-93
2022/11/14 05:37:44;;;;;;;30.80;20.50;;;2.70;99.90;;;;;;5014837;28;20210;-91
2022/11/14 05:40:21;;;;;;;28.07;17.77;;;2.70;99.90;;;;;;5027100;28;20237;-92
2022/11/14 05:42:59;;;;;;;20.37;15.33;;;2.60;99.90;;;;;;5014599;28;20236;-91
2022/11/14 05:45:31;;;;;;;23.00;15.60;;;2.60;99.90;;;;;;5019598;28;20208;-91
2022/11/14 05:48:03;;;;;;;19.80;14.57;;;2.60;99.90;;;;;;5018053;28;20213;-91
2022/11/14 05:50:38;;;;;;;17.63;13.77;;;2.60;99.90;;;;;;5016043;28;20229;-92
2022/11/14 05:53:10;;;;;;;20.03;12.83;;;2.60;99.90;;;;;;5014491;28;20209;-91
2022/11/14 05:55:44;;;;;;;17.80;13.77;;;2.60;99.90;;;;;;5014246;28;20213;-90
2022/11/14 05:58:15;;;;;;;18.77;13.00;;;2.60;99.90;;;;;;5014399;28;20301;-90
2022/11/14 06:00:47;;;;;;;17.77;12.60;;;2.60;99.90;;;;;;5015569;28;20307;-90
2022/11/14 06:03:23;;;;;;;15.47;11.37;;;2.60;99.90;;;;;;5015681;28;20296;-90
2022/11/14 06:05:55;;;;;;;18.60;11.93;;;2.60;99.90;;;;;;5015024;28;20206;-90
2022/11/14 06:08:26;;;;;;;16.07;11.40;;;2.60;99.90;;;;;;5016118;28;20254;-90
2022/11/14 06:11:03;;;;;;;16.03;11.47;;;2.60;99.90;;;;;;5015618;28;20259;-91
2022/11/14 06:13:35;;;;;;;13.67;10.30;;;2.50;99.90;;;;;;5008138;28;20265;-92
2022/11/14 06:16:09;;;;;;;12.67;9.67;;;2.60;99.90;;;;;;5012818;28;20289;-90
2022/11/14 06:18:40;;;;;;;13.67;10.10;;;2.60;99.90;;;;;;5013344;28;20309;-91
2022/11/14 06:21:13;;;;;;;17.30;11.53;;;2.50;99.90;;;;;;5006976;28;20209;-90
2022/11/14 06:23:45;;;;;;;14.00;10.33;;;2.50;99.90;;;;;;5017230;28;20289;-90
2022/11/14 06:26:22;;;;;;;14.70;10.90;;;2.50;99.90;;;;;;5017605;28;20233;-91
2022/11/14 06:28:54;;;;;;;14.77;10.97;;;2.50;99.90;;;;;;5014915;28;20206;-91
2022/11/14 06:31:26;;;;;;;16.13;10.47;;;2.50;99.90;;;;;;5012035;28;20297;-90
2022/11/14 06:33:57;;;;;;;13.47;11.07;;;2.50;99.90;;;;;;5014236;28;20296;-91
2022/11/14 06:36:30;;;;;;;14.60;10.63;;;2.40;99.90;;;;;;4998615;28;20228;-90
2022/11/14 06:39:01;;;;;;;14.00;10.23;;;2.40;99.90;;;;;;5012217;28;20260;-90
2022/11/14 06:41:34;;;;;;;14.73;10.43;;;2.40;99.90;;;;;;5014028;28;20244;-90
2022/11/14 06:44:09;;;;;;;16.43;11.37;;;2.40;99.90;;;;;;5002594;28;20252;-91
2022/11/14 06:46:40;;;;;;;13.57;9.93;;;2.40;99.90;;;;;;5010440;28;20240;-90
2022/11/14 06:49:11;;;;;;;13.57;10.17;;;2.30;99.90;;;;;;5014902;28;20292;-90
2022/11/14 06:51:42;;;;;;;14.23;10.30;;;2.30;99.90;;;;;;5014552;28;20210;-91
2022/11/14 06:54:14;;;;;;;13.17;10.10;;;2.30;99.90;;;;;;5014820;28;20611;-91
2022/11/14 06:56:47;;;;;;;13.93;8.83;;;2.30;99.90;;;;;;5016143;28;20644;-90
2022/11/14 06:59:19;;;;;;;15.73;10.50;;;2.30;99.90;;;;;;5003525;28;20235;-90
2022/11/14 07:01:50;;;;;;;11.37;9.27;;;2.30;99.90;;;;;;5018590;28;20666;-92
2022/11/14 07:04:21;;;;;;;15.00;10.57;;;2.20;99.90;;;;;;5027179;28;20220;-91
2022/11/14 07:06:52;;;;;;;12.30;9.50;;;2.20;99.90;;;;;;5028938;28;20202;-90
2022/11/14 07:09:23;;;;;;;15.83;10.60;;;2.20;99.90;;;;;;5029357;28;20274;-90
2022/11/14 07:11:56;;;;;;;14.80;10.93;;;2.20;99.90;;;;;;5016108;28;20194;-94
2022/11/14 07:14:28;;;;;;;14.80;10.57;;;2.20;99.90;;;;;;5011457;28;20671;-91
2022/11/14 07:17:00;;;;;;;14.63;11.03;;;2.20;99.90;;;;;;5011004;28;20210;-91
2022/11/14 07:19:30;;;;;;;15.20;12.00;;;2.20;99.90;;;;;;5015189;28;20221;-91
2022/11/14 07:22:01;;;;;;;17.07;12.00;;;2.20;99.90;;;;;;5015583;28;20237;-90
2022/11/14 07:24:32;;;;;;;16.87;12.67;;;2.20;99.90;;;;;;5006310;28;20265;-91
2022/11/14 07:27:09;;;;;;;17.40;12.60;;;2.20;99.90;;;;;;5014313;28;20237;-89
2022/11/14 07:29:41;;;;;;;21.23;14.07;;;2.30;99.90;;;;;;5007765;28;20197;-90
2022/11/14 07:32:12;;;;;;;18.97;13.27;;;2.30;99.90;;;;;;5020885;28;20304;-90
2022/11/14 07:34:44;;;;;;;18.13;14.20;;;2.30;99.90;;;;;;5024837;28;20225;-91
2022/11/14 07:37:15;;;;;;;23.17;15.83;;;2.30;99.90;;;;;;5026008;28;20197;-90
2022/11/14 07:39:46;;;;;;;19.80;15.20;;;2.20;99.90;;;;;;5024709;28;20680;-90
2022/11/14 07:42:19;;;;;;;22.60;15.70;;;2.20;99.90;;;;;;5019142;28;20255;-90
2022/11/14 07:44:51;;;;;;;21.07;15.73;;;2.20;99.90;;;;;;5013867;28;20233;-91
2022/11/14 07:47:22;;;;;;;21.30;15.27;;;2.20;99.90;;;;;;5012803;28;20249;-90
2022/11/14 07:49:54;;;;;;;22.57;16.07;;;2.20;99.90;;;;;;5013731;28;20209;-90
2022/11/14 07:52:25;;;;;;;23.57;16.03;;;2.20;99.90;;;;;;5015207;28;20754;-89
2022/11/14 07:54:56;;;;;;;24.63;16.00;;;2.10;99.90;;;;;;5013098;28;20209;-91
2022/11/14 07:57:28;;;;;;;26.90;17.67;;;2.10;99.90;;;;;;5012793;28;20252;-90
2022/11/14 08:00:04;;;;;;;22.93;16.00;;;2.10;99.90;;;;;;5014500;28;20225;-90
2022/11/14 08:02:36;;;;;;;23.50;16.80;;;2.10;99.90;;;;;;5011300;28;20289;-90
2022/11/14 08:05:09;;;;;;;23.27;16.30;;;2.10;99.90;;;;;;5012617;28;20210;-90
2022/11/14 08:07:40;;;;;;;20.87;15.60;;;2.10;99.90;;;;;;5014543;28;20206;-90
2022/11/14 08:10:13;;;;;;;23.17;15.47;;;2.00;99.90;;;;;;5012169;28;20210;-91
2022/11/14 08:12:47;;;;;;;21.43;14.77;;;1.90;99.90;;;;;;5012183;28;20300;-92
2022/11/14 08:15:38;;;;;;;20.10;14.90;;;1.90;99.90;;;;;;5013175;28;20216;-91
2022/11/14 08:18:09;;;;;;;21.17;15.10;;;1.90;99.90;;;;;;5012737;28;20297;-90
2022/11/14 08:20:40;;;;;;;19.10;14.07;;;1.90;99.90;;;;;;5012295;28;20323;-90
2022/11/14 08:23:13;;;;;;;20.27;15.27;;;1.90;99.90;;;;;;5011794;28;20502;-91
2022/11/14 08:25:44;;;;;;;24.07;16.47;;;1.90;99.90;;;;;;5011530;28;20746;-91
2022/11/14 08:28:17;;;;;;;19.07;14.80;;;1.90;99.90;;;;;;5011978;28;20216;-91
2022/11/14 08:30:48;;;;;;;20.90;15.20;;;1.90;99.90;;;;;;5012099;28;20212;-91
2022/11/14 08:33:20;;;;;;;19.90;14.83;;;1.90;99.90;;;;;;5011411;28;20248;-89
2022/11/14 08:35:51;;;;;;;22.33;14.73;;;1.80;99.90;;;;;;5012254;28;20205;-91
2022/11/14 08:38:22;;;;;;;20.43;15.07;;;1.80;99.90;;;;;;5014369;28;20298;-91
2022/11/14 08:40:53;;;;;;;21.93;15.40;;;1.70;99.90;;;;;;5021158;28;20267;-91
2022/11/14 08:43:28;;;;;;;19.47;13.53;;;1.70;99.90;;;;;;5013723;28;20289;-92
2022/11/14 08:46:01;;;;;;;21.63;14.67;;;1.70;99.90;;;;;;4996664;28;20210;-91
2022/11/14 08:48:33;;;;;;;20.53;14.87;;;1.60;99.90;;;;;;4996601;28;20206;-91
2022/11/14 08:51:05;;;;;;;20.57;14.50;;;1.60;99.90;;;;;;5006099;28;20734;-91
2022/11/14 08:53:37;;;;;;;21.27;14.90;;;1.50;99.90;;;;;;5014503;28;20928;-91
2022/11/14 08:56:11;;;;;;;22.23;14.77;;;1.50;99.90;;;;;;5014606;28;20202;-91
2022/11/14 08:58:45;;;;;;;19.10;14.47;;;1.40;99.90;;;;;;5015312;28;20633;-91
2022/11/14 09:01:16;;;;;;;21.13;14.83;;;1.50;99.90;;;;;;5014612;28;20428;-91
2022/11/14 09:03:47;;;;;;;23.07;16.10;;;1.50;99.90;;;;;;5015259;28;20721;-91
2022/11/14 09:06:23;;;;;;;22.53;15.50;;;1.50;99.90;;;;;;5024512;28;20657;-90
2022/11/14 09:08:56;;;;;;;25.30;15.73;;;1.50;99.90;;;;;;5035547;28;20680;-91
2022/11/14 09:11:27;;;;;;;21.97;15.37;;;1.40;99.90;;;;;;5032638;28;20386;-90
2022/11/14 09:14:01;;;;;;;21.57;15.53;;;1.50;99.90;;;;;;5014319;28;20233;-91
2022/11/14 09:16:32;;;;;;;21.07;14.87;;;1.50;99.90;;;;;;5014807;28;20580;-90
2022/11/14 09:19:03;;;;;;;22.93;15.70;;;1.50;99.90;;;;;;5015073;28;20214;-90
2022/11/14 09:21:34;;;;;;;20.93;15.47;;;1.50;99.90;;;;;;5015134;28;20264;-91
2022/11/14 09:24:07;;;;;;;21.03;15.63;;;1.50;99.90;;;;;;5014644;28;20225;-91
2022/11/14 09:26:38;;;;;;;21.67;15.73;;;1.40;99.90;;;;;;5015048;28;20288;-90
2022/11/14 09:29:12;;;;;;;23.20;15.47;;;1.40;99.90;;;;;;5015064;28;20259;-90
2022/11/14 09:31:44;;;;;;;23.50;15.67;;;1.40;99.90;;;;;;5015485;28;20300;-91
2022/11/14 09:34:16;;;;;;;19.03;14.90;;;1.40;99.90;;;;;;5017660;28;20244;-91
2022/11/14 09:36:50;;;;;;;19.87;15.43;;;1.40;99.90;;;;;;5023158;28;20709;-90
2022/11/14 09:39:21;;;;;;;21.33;16.27;;;1.40;99.90;;;;;;5024576;28;20221;-91
2022/11/14 09:42:07;;;;;;;20.80;15.63;;;1.30;99.90;;;;;;5030236;28;20245;-92
2022/11/14 09:45:01;;;;;;;22.43;15.17;;;1.40;99.90;;;;;;5029519;28;20232;-92
2022/11/14 09:47:37;;;;;;;21.97;15.93;;;1.40;99.90;;;;;;5027284;28;20214;-91
2022/11/14 09:50:14;;;;;;;23.37;16.30;;;1.40;99.90;;;;;;5020103;28;20212;-91
2022/11/14 09:52:54;;;;;;;21.87;16.43;;;1.40;99.90;;;;;;5017817;28;20205;-91
2022/11/14 09:55:29;;;;;;;23.33;16.07;;;1.50;99.90;;;;;;5015955;28;20282;-91
2022/11/14 09:58:09;;;;;;;19.67;15.17;;;1.50;99.90;;;;;;5014094;28;20712;-90
2022/11/14 10:00:52;;;;;;;20.97;15.03;;;1.60;99.90;;;;;;5014869;28;20232;-91
2022/11/14 10:03:34;;;;;;;19.93;14.67;;;1.60;99.90;;;;;;5014494;28;20237;-90
2022/11/14 10:06:24;;;;;;;22.87;15.50;;;1.60;99.90;;;;;;5015876;28;20815;-91
2022/11/14 10:09:14;;;;;;;18.83;14.23;;;1.60;99.90;;;;;;5015098;28;20853;-91
2022/11/14 10:11:53;;;;;;;20.27;13.23;;;1.60;99.90;;;;;;5015326;28;20574;-91
2022/11/14 10:14:46;;;;;;;20.10;14.00;;;1.50;99.90;;;;;;5014926;28;20272;-91
2022/11/14 10:17:38;;;;;;;18.07;13.10;;;1.50;99.90;;;;;;5009500;28;20237;-92
2022/11/14 10:20:19;;;;;;;16.13;12.10;;;1.40;99.90;;;;;;5017016;28;20229;-91
2022/11/14 10:23:06;;;;;;;16.73;12.20;;;1.40;99.90;;;;;;5004613;28;20233;-90
2022/11/14 10:25:47;;;;;;;17.33;12.87;;;1.40;99.90;;;;;;5022667;28;20201;-91
2022/11/14 10:28:44;;;;;;;18.07;12.37;;;1.40;99.90;;;;;;5015817;28;20292;-91
2022/11/14 10:31:25;;;;;;;16.53;11.87;;;1.40;99.90;;;;;;5013307;28;20662;-89
2022/11/14 10:34:05;;;;;;;17.07;12.27;;;1.40;99.90;;;;;;5013327;28;20233;-91
2022/11/14 10:36:50;;;;;;;16.50;12.30;;;1.30;99.90;;;;;;5014364;28;20296;-91
2022/11/14 10:39:27;;;;;;;15.23;11.60;;;1.30;99.90;;;;;;5013699;28;20214;-91
2022/11/14 10:42:04;;;;;;;16.33;11.93;;;1.30;99.90;;;;;;5012143;28;20324;-91
2022/11/14 10:44:43;;;;;;;15.37;10.80;;;1.30;99.90;;;;;;5013660;28;20603;-90
2022/11/14 10:47:19;;;;;;;14.87;11.50;;;1.30;99.90;;;;;;5013761;28;20205;-91
2022/11/14 10:49:56;;;;;;;14.77;11.23;;;1.30;99.90;;;;;;5013298;28;20733;-92
2022/11/14 10:52:40;;;;;;;14.13;10.57;;;1.30;99.90;;;;;;5012020;28;20239;-91
2022/11/14 10:55:16;;;;;;;13.97;10.43;;;1.30;99.90;;;;;;5013826;28;20209;-92
2022/11/14 10:57:52;;;;;;;14.87;11.03;;;1.20;99.90;;;;;;5013802;28;20216;-91
2022/11/14 11:00:25;;;;;;;15.57;11.00;;;1.20;99.90;;;;;;5012765;28;20316;-91
2022/11/14 11:02:57;;;;;;;14.10;10.83;;;1.20;99.90;;;;;;5012661;28;20237;-92
2022/11/14 11:05:46;;;;;;;14.37;10.47;;;1.20;99.90;;;;;;5014467;28;20202;-92
2022/11/14 11:11:30;;;;;;;14.67;10.63;;;1.10;99.90;;;;;;5014499;28;20206;-90
2022/11/14 11:14:02;;;;;;;14.50;11.17;;;1.10;99.90;;;;;;5015658;28;20244;-90
2022/11/14 11:16:34;;;;;;;17.90;11.57;;;1.10;99.90;;;;;;5014005;28;20252;-92
2022/11/14 11:19:24;;;;;;;14.03;10.17;;;1.00;99.90;;;;;;5016028;28;20228;-92
2022/11/14 11:21:58;;;;;;;16.20;10.43;;;1.00;99.90;;;;;;5017589;28;20252;-95
2022/11/14 11:24:35;;;;;;;25.60;9.83;;;0.90;99.90;;;;;;5017008;28;20583;-91
2022/11/14 11:27:24;;;;;;;17.10;10.10;;;0.80;99.90;;;;;;5010160;28;20593;-91
2022/11/14 11:30:10;;;;;;;18.37;9.50;;;0.80;99.90;;;;;;5013573;28;20292;-91
2022/11/14 11:32:44;;;;;;;15.47;9.20;;;0.60;99.90;;;;;;5015231;28;20201;-92
2022/11/14 11:35:17;;;;;;;12.17;9.80;;;0.60;99.90;;;;;;5014187;28;20233;-91
2022/11/14 11:37:56;;;;;;;14.77;10.07;;;0.50;99.90;;;;;;4994370;28;20210;-92
2022/11/14 11:40:29;;;;;;;19.67;10.77;;;0.60;99.90;;;;;;4995307;28;20260;-91
2022/11/14 11:43:04;;;;;;;14.07;10.97;;;0.60;99.90;;;;;;5004881;28;20288;-92
2022/11/14 11:45:58;;;;;;;13.63;10.47;;;0.60;99.90;;;;;;4997077;28;20210;-92
2022/11/14 11:48:35;;;;;;;12.77;9.37;;;0.50;99.90;;;;;;5014091;28;20236;-92
2022/11/14 11:51:13;;;;;;;12.30;10.10;;;0.50;99.90;;;;;;5014298;28;20646;-92
2022/11/14 11:53:58;;;;;;;11.53;9.57;;;0.50;99.90;;;;;;5026106;28;20280;-92
2022/11/14 11:56:33;;;;;;;15.77;10.43;;;0.50;99.90;;;;;;5012097;28;20212;-91
2022/11/14 11:59:22;;;;;;;14.57;10.47;;;0.50;99.90;;;;;;5027397;28;20254;-92
2022/11/14 12:01:54;;;;;;;12.30;10.03;;;0.50;99.90;;;;;;5021186;28;20216;-92
2022/11/14 12:04:26;;;;;;;12.53;10.37;;;0.50;99.90;;;;;;5026655;28;20212;-91
2022/11/14 12:07:04;;;;;;;13.77;11.13;;;0.50;99.90;;;;;;4996163;28;20238;-93
2022/11/14 12:09:41;;;;;;;15.90;11.63;;;0.40;99.90;;;;;;5014528;28;20764;-92
2022/11/14 12:12:51;;;;;;;12.77;9.97;;;0.40;99.90;;;;;;5015753;28;20205;-92
2022/11/14 12:15:29;;;;;;;12.73;9.67;;;0.40;99.90;;;;;;5016342;28;20413;-92
2022/11/14 12:18:30;;;;;;;13.13;9.57;;;0.50;99.90;;;;;;5002371;28;20285;-92
2022/11/14 12:21:13;;;;;;;10.87;8.80;;;0.40;99.90;;;;;;5006190;28;20324;-90
2022/11/14 12:24:25;;;;;;;12.50;8.97;;;0.50;99.90;;;;;;5015475;28;20237;-91
2022/11/14 12:27:13;;;;;;;13.23;8.57;;;0.50;99.90;;;;;;5015651;28;20301;-91
2022/11/14 12:30:09;;;;;;;13.13;8.90;;;0.50;99.90;;;;;;5015221;28;20209;-91
2022/11/14 12:32:46;;;;;;;11.83;8.43;;;0.60;99.90;;;;;;5015736;28;20263;-91
2022/11/14 12:35:22;;;;;;;11.57;8.57;;;0.60;99.90;;;;;;5016724;28;21023;-92
2022/11/14 12:37:56;;;;;;;12.50;9.23;;;0.70;99.90;;;;;;4996214;28;20662;-92
2022/11/14 12:40:33;;;;;;;14.27;9.90;;;0.80;99.90;;;;;;5015410;28;20697;-92
2022/11/14 12:43:29;;;;;;;11.90;9.03;;;0.80;99.90;;;;;;5015432;28;20320;-91
2022/11/14 12:46:08;;;;;;;13.17;8.97;;;0.80;99.90;;;;;;5017204;28;20220;-91
2022/11/14 12:48:40;;;;;;;12.17;9.17;;;0.80;99.90;;;;;;4997961;28;20205;-91
2022/11/14 12:51:51;;;;;;;13.30;9.10;;;0.70;99.90;;;;;;4999069;28;20249;-91
2022/11/14 12:54:48;;;;;;;11.73;8.63;;;0.80;99.90;;;;;;4974547;28;20246;-93
2022/11/14 12:57:49;;;;;;;12.30;9.07;;;0.80;99.90;;;;;;4995743;28;20309;-92
2022/11/14 13:00:21;;;;;;;13.93;9.30;;;0.80;99.90;;;;;;5022109;28;20284;-91
2022/11/14 13:03:12;;;;;;;13.23;9.33;;;0.80;99.90;;;;;;5020637;28;20248;-92
2022/11/14 13:05:58;;;;;;;11.80;8.70;;;0.80;99.90;;;;;;5034308;28;20209;-91
2022/11/14 13:08:47;;;;;;;12.60;8.97;;;0.80;99.90;;;;;;5036408;28;20220;-92
2022/11/14 13:24:00;;;;;;;13.37;9.57;;;0.80;99.90;;;;;;5015361;28;20248;-92
2022/11/14 13:26:55;;;;;;;10.00;8.20;;;0.90;99.90;;;;;;5016063;28;20215;-92
2022/11/14 13:30:01;;;;;;;11.30;8.50;;;0.90;99.90;;;;;;5016432;28;20312;-92
2022/11/14 13:32:57;;;;;;;16.13;8.03;;;0.90;99.90;;;;;;5014600;28;20206;-91
2022/11/14 13:35:55;;;;;;;10.20;8.00;;;0.90;99.90;;;;;;5015408;28;20209;-92
2022/11/14 13:39:04;;;;;;;11.43;8.60;;;0.80;99.90;;;;;;5015369;28;20594;-93
2022/11/14 13:42:07;;;;;;;10.73;8.17;;;0.80;99.90;;;;;;5015305;28;20205;-92
2022/11/14 13:45:20;;;;;;;11.13;8.13;;;0.70;99.90;;;;;;5014466;28;20295;-91